createdAt,value
2019-05-12T00:01:18.544Z,73.92
2019-05-12T00:06:18.452Z,73.94
2019-05-12T00:11:20.919Z,73.98
2019-05-12T00:16:23.376Z,73.98
2019-05-12T00:21:28.145Z,74.18
2019-05-12T00:26:28.464Z,74.54
2019-05-12T00:31:30.789Z,74.42
2019-05-12T00:36:33.255Z,74.46
2019-05-12T00:41:35.708Z,74.65
2019-05-12T00:46:38.660Z,74.96
2019-05-12T00:51:40.631Z,74.62
2019-05-12T00:56:43.087Z,74.40
2019-05-12T01:01:45.557Z,74.39
2019-05-12T01:06:48.630Z,74.54
2019-05-12T01:11:50.481Z,74.56
2019-05-12T01:16:53.047Z,74.31
2019-05-12T01:21:55.520Z,74.26
2019-05-12T01:26:58.330Z,74.74
2019-05-12T01:32:00.464Z,75.17
2019-05-12T01:37:07.882Z,75.10
2019-05-12T01:42:09.113Z,75.08
2019-05-12T01:47:10.827Z,75.02
2019-05-12T01:52:13.295Z,74.69
2019-05-12T01:57:15.753Z,74.92
2019-05-12T02:02:18.226Z,74.90
2019-05-12T02:07:20.682Z,74.85
2019-05-12T02:12:23.138Z,74.46
2019-05-12T02:17:25.607Z,74.48
2019-05-12T02:22:28.063Z,74.64
2019-05-12T02:27:30.517Z,74.63
2019-05-12T02:32:47.321Z,74.53
2019-05-12T02:37:36.008Z,74.71
2019-05-12T02:42:37.910Z,74.75
2019-05-12T02:47:40.360Z,74.69
2019-05-12T02:52:44.252Z,74.49
2019-05-12T02:57:45.437Z,74.25
2019-05-12T03:02:47.828Z,74.11
2019-05-12T03:07:50.297Z,74.13
2019-05-12T03:12:54.947Z,75.01
2019-05-12T03:17:55.218Z,75.03
2019-05-12T03:22:57.675Z,74.50
2019-05-12T03:28:00.118Z,74.35
2019-05-12T03:33:08.199Z,74.08
2019-05-12T03:38:05.051Z,73.98
2019-05-12T03:43:07.514Z,73.54
2019-05-12T03:48:09.990Z,73.25
2019-05-12T03:53:15.675Z,73.29
2019-05-12T03:58:15.467Z,73.00
2019-05-12T04:03:17.358Z,72.95
2019-05-12T04:08:19.819Z,72.65
2019-05-12T04:13:22.285Z,72.97
2019-05-12T04:18:24.914Z,73.09
2019-05-12T04:23:27.200Z,72.80
2019-05-12T04:28:29.662Z,72.42
2019-05-12T04:33:34.700Z,72.03
2019-05-12T04:38:35.516Z,71.50
2019-05-12T04:43:37.084Z,71.47
2019-05-12T04:48:39.542Z,71.77
2019-05-12T04:53:44.927Z,71.02
2019-05-12T04:58:45.166Z,70.98
2019-05-12T05:03:46.925Z,71.02
2019-05-12T05:08:49.389Z,70.13
2019-05-12T05:13:54.600Z,70.00
2019-05-12T05:18:54.463Z,69.51
2019-05-12T05:23:56.763Z,69.73
2019-05-12T05:28:59.221Z,69.40
2019-05-12T05:34:01.699Z,69.46
2019-05-12T05:39:04.410Z,68.92
2019-05-12T05:44:06.618Z,66.85
2019-05-12T05:49:09.088Z,65.66
2019-05-12T05:54:13.602Z,64.70
2019-05-12T05:59:15.079Z,63.19
2019-05-12T06:04:16.516Z,61.21
2019-05-12T06:09:18.971Z,61.42
2019-05-12T06:14:23.538Z,58.85
2019-05-12T06:19:26.174Z,56.23
2019-05-12T06:24:26.370Z,56.08
2019-05-12T06:29:28.828Z,51.26
2019-05-12T06:34:31.375Z,49.64
2019-05-12T06:39:34.433Z,48.65
2019-05-12T06:44:36.288Z,49.13
2019-05-12T06:49:38.750Z,48.88
2019-05-12T06:54:44.570Z,45.97
2019-05-12T06:59:50.958Z,47.75
2019-05-12T07:04:50.296Z,46.17
2019-05-12T07:09:53.720Z,46.16
2019-05-12T07:14:55.569Z,47.31
2019-05-12T07:19:57.002Z,46.82
2019-05-12T07:24:55.953Z,45.97
2019-05-12T07:29:58.448Z,45.70
2019-05-12T07:35:00.873Z,45.12
2019-05-12T07:40:04.844Z,46.00
2019-05-12T07:45:05.996Z,45.91
2019-05-12T07:50:10.023Z,46.36
2019-05-12T07:55:10.931Z,46.05
2019-05-12T08:00:21.280Z,45.97
2019-05-12T08:05:19.446Z,45.24
2019-05-12T08:10:19.952Z,44.36
2019-05-12T08:15:20.800Z,43.13
2019-05-12T08:20:23.916Z,41.35
2019-05-12T08:25:28.800Z,38.02
2019-05-12T08:30:33.105Z,21.97
2019-05-12T08:35:38.039Z,16.04
2019-05-12T08:40:39.691Z,11.92
2019-05-12T08:45:38.589Z,10.13
2019-05-12T08:50:42.946Z,11.40
2019-05-12T08:55:43.764Z,10.23
2019-05-12T09:00:50.106Z,14.08
2019-05-12T09:05:48.490Z,11.28
2019-05-12T09:10:54.739Z,11.12
2019-05-12T09:15:54.185Z,9.89
2019-05-12T09:20:55.993Z,9.07
2019-05-12T09:25:58.396Z,7.61
2019-05-12T09:31:00.874Z,14.83
2019-05-12T09:36:04.344Z,20.37
2019-05-12T09:41:05.790Z,23.45
2019-05-12T09:46:08.245Z,25.77
2019-05-12T09:51:10.699Z,28.54
2019-05-12T09:56:13.785Z,30.11
2019-05-12T10:01:15.689Z,28.30
2019-05-12T10:06:21.273Z,28.08
2019-05-12T10:11:21.038Z,34.21
2019-05-12T10:16:24.087Z,36.18
2019-05-12T10:21:25.554Z,36.51
2019-05-12T10:26:28.049Z,37.23
2019-05-12T10:31:35.660Z,36.24
2019-05-12T10:36:33.743Z,37.55
2019-05-12T10:41:35.450Z,37.81
2019-05-12T10:46:37.937Z,33.80
2019-05-12T10:51:40.410Z,33.03
2019-05-12T10:56:43.794Z,31.07
2019-05-12T11:01:48.827Z,31.69
2019-05-12T11:06:48.595Z,32.07
2019-05-12T11:11:50.282Z,32.85
2019-05-12T11:16:54.220Z,32.42
2019-05-12T11:21:55.180Z,29.32
2019-05-12T11:26:57.653Z,27.39
2019-05-12T11:32:00.104Z,27.25
2019-05-12T11:37:03.392Z,17.88
2019-05-12T11:42:05.051Z,16.20
2019-05-12T11:47:07.543Z,11.25
2019-05-12T11:52:15.465Z,11.05
2019-05-12T11:57:13.342Z,10.00
2019-05-12T12:02:14.929Z,9.76
2019-05-12T12:07:17.399Z,10.36
2019-05-12T12:12:19.865Z,9.93
2019-05-12T12:17:30.825Z,9.63
2019-05-12T12:22:28.153Z,11.33
2019-05-12T12:27:27.373Z,10.23
2019-05-12T12:32:29.851Z,11.51
2019-05-12T12:37:33.138Z,17.76
2019-05-12T12:42:36.995Z,20.35
2019-05-12T12:47:46.683Z,13.00
2019-05-12T12:52:46.899Z,20.19
2019-05-12T12:57:46.351Z,24.33
2019-05-12T13:02:49.110Z,23.83
2019-05-12T13:07:47.105Z,27.61
2019-05-12T13:12:50.337Z,29.82
2019-05-12T13:17:52.088Z,29.64
2019-05-12T13:22:54.522Z,26.92
2019-05-12T13:28:01.619Z,27.85
2019-05-12T13:32:59.456Z,28.56
2019-05-12T13:38:01.934Z,27.46
2019-05-12T13:43:09.222Z,28.37
2019-05-12T13:48:09.450Z,27.63
2019-05-12T13:53:10.379Z,27.24
2019-05-12T13:58:13.619Z,27.47
2019-05-12T14:03:14.387Z,29.80
2019-05-12T14:08:16.857Z,30.70
2019-05-12T14:13:19.390Z,31.54
2019-05-12T14:18:21.857Z,31.89
2019-05-12T14:23:24.345Z,31.27
2019-05-12T14:28:26.825Z,33.09
2019-05-12T14:33:29.825Z,33.98
2019-05-12T14:38:33.675Z,33.42
2019-05-12T14:43:34.246Z,33.83
2019-05-12T14:48:40.214Z,32.75
2019-05-12T14:53:39.836Z,33.01
2019-05-12T14:58:41.670Z,33.23
2019-05-12T15:03:47.677Z,33.20
2019-05-12T15:08:46.619Z,34.20
2019-05-12T15:13:49.083Z,34.17
2019-05-12T15:18:53.967Z,35.16
2019-05-12T15:23:54.062Z,34.84
2019-05-12T15:28:56.581Z,33.92
2019-05-12T15:33:59.011Z,34.11
2019-05-12T15:39:03.385Z,34.16
2019-05-12T15:44:06.489Z,33.67
2019-05-12T15:49:08.755Z,33.52
2019-05-12T15:54:11.454Z,33.78
2019-05-12T15:59:11.378Z,33.30
2019-05-12T16:04:15.257Z,33.29
2019-05-12T16:09:16.346Z,33.44
2019-05-12T16:14:18.896Z,33.34
2019-05-12T16:19:23.425Z,33.47
2019-05-12T16:24:27.127Z,33.24
2019-05-12T16:29:26.275Z,33.19
2019-05-12T16:34:28.743Z,33.08
2019-05-12T16:39:37.133Z,33.04
2019-05-12T16:44:34.881Z,32.60
2019-05-12T16:49:37.409Z,32.59
2019-05-12T16:54:39.459Z,32.63
2019-05-12T16:59:42.556Z,33.33
2019-05-12T17:04:44.965Z,33.15
2019-05-12T17:09:47.440Z,33.82
2019-05-12T17:14:50.299Z,34.01
2019-05-12T17:19:54.027Z,34.40
2019-05-12T17:24:54.968Z,34.19
2019-05-12T17:29:57.434Z,34.31
2019-05-12T17:34:59.923Z,34.78
2019-05-12T17:40:03.707Z,35.42
2019-05-12T17:45:09.483Z,36.69
2019-05-12T17:50:10.202Z,36.40
2019-05-12T17:55:10.896Z,36.27
2019-05-12T18:00:13.943Z,36.33
2019-05-12T18:05:15.942Z,36.52
2019-05-12T18:10:17.292Z,37.25
2019-05-12T18:15:23.430Z,37.51
2019-05-12T18:20:23.804Z,37.86
2019-05-12T18:25:30.257Z,38.57
2019-05-12T18:30:27.163Z,40.34
2019-05-12T18:35:29.639Z,40.45
2019-05-12T18:40:34.076Z,40.69
2019-05-12T18:45:34.680Z,41.32
2019-05-12T18:50:37.160Z,41.09
2019-05-12T18:55:40.540Z,41.22
2019-05-12T19:00:43.642Z,40.99
2019-05-12T19:05:44.681Z,41.69
2019-05-12T19:10:51.187Z,42.27
2019-05-12T19:15:52.674Z,43.83
2019-05-12T19:20:54.161Z,44.20
2019-05-12T19:25:54.563Z,44.88
2019-05-12T19:31:00.992Z,45.96
2019-05-12T19:36:04.347Z,47.63
2019-05-12T19:41:04.443Z,48.56
2019-05-12T19:46:04.918Z,49.20
2019-05-12T19:51:20.864Z,49.89
2019-05-12T19:56:09.385Z,50.85
2019-05-12T20:01:13.921Z,51.40
2019-05-12T20:06:14.378Z,52.39
2019-05-12T20:11:20.090Z,52.80
2019-05-12T20:16:21.881Z,52.69
2019-05-12T20:21:26.081Z,52.32
2019-05-12T20:26:24.279Z,52.40
2019-05-12T20:31:27.355Z,52.81
2019-05-12T20:36:29.186Z,53.54
2019-05-12T20:41:33.669Z,53.41
2019-05-12T20:46:34.141Z,54.18
2019-05-12T20:51:36.599Z,54.80
2019-05-12T20:56:39.074Z,55.55
2019-05-12T21:01:41.531Z,55.88
2019-05-12T21:06:43.993Z,56.46
2019-05-12T21:11:46.483Z,57.12
2019-05-12T21:16:48.927Z,57.29
2019-05-12T21:21:51.388Z,56.91
2019-05-12T21:26:54.726Z,56.88
2019-05-12T21:31:56.481Z,56.45
2019-05-12T21:37:04.249Z,56.77
2019-05-12T21:42:03.805Z,56.77
2019-05-12T21:47:09.943Z,56.66
2019-05-12T21:52:06.701Z,57.13
2019-05-12T21:57:08.580Z,57.81
2019-05-12T22:02:11.063Z,57.97
2019-05-12T22:07:15.053Z,58.44
2019-05-12T22:12:16.057Z,58.77
2019-05-12T22:17:18.535Z,59.06
2019-05-12T22:22:28.079Z,59.37
2019-05-12T22:27:27.175Z,59.45
2019-05-12T22:32:29.523Z,59.49
2019-05-12T22:37:29.410Z,59.28
2019-05-12T22:42:30.811Z,58.06
2019-05-12T22:47:33.522Z,56.76
2019-05-12T22:52:39.000Z,55.86
2019-05-12T22:57:40.048Z,54.41
2019-05-12T23:02:40.723Z,54.02
2019-05-12T23:07:43.975Z,53.06
2019-05-12T23:12:50.295Z,52.44
2019-05-12T23:17:49.519Z,52.35
2019-05-12T23:22:50.585Z,52.33
2019-05-12T23:27:54.351Z,52.47
2019-05-12T23:32:55.483Z,52.48
2019-05-12T23:37:57.940Z,52.64
2019-05-12T23:43:00.396Z,53.02
2019-05-12T23:48:03.738Z,54.25
2019-05-12T23:53:05.304Z,55.41
2019-05-12T23:58:07.747Z,56.20
